< < Back
Terminal Aerodrome Forecast


Current Version              Previous Versions:   1  2  3  4  5  6  7  8  9  

Terminal Aerodrome Forecast

650
FTUS42 KFFC 031735
TAFFTY
TAF
KFTY 031735Z 0318/0418 34007KT P6SM FEW035 BKN150
      TEMPO 0319/0322 -TSRA BKN030CB
     FM040000 30004KT P6SM SCT050 SCT150
     FM041400 01004KT P6SM FEW040 SCT250
     FM041700 04005KT P6SM SCT060 BKN250=



Latest METAR

564
SAUS70 KWBC 031900 RRD
MTRFTY
METAR KFTY 031853Z 01007KT 10SM VCTS BKN034 27/19 A2998 RMK AO2 LTG DSNT
NW-E TSB23E45 SLP142 T02670194


USA.gov is the U.S. government's official web portal to all federal, state and local government web resources and services.